sensor_id;sensor_type;location;lat;lon;timestamp;temperature;humidity
72576;DHT22;60613;48.658;2.328;2023-01-24T07:02:40;21.10;28.60
72576;DHT22;60613;48.658;2.328;2023-01-24T07:05:06;21.00;29.40
72576;DHT22;60613;48.658;2.328;2023-01-24T07:07:31;21.10;29.30
72576;DHT22;60613;48.658;2.328;2023-01-24T07:09:57;21.10;29.40
72576;DHT22;60613;48.658;2.328;2023-01-24T07:12:23;21.20;29.20
72576;DHT22;60613;48.658;2.328;2023-01-24T07:14:48;21.40;29.50
72576;DHT22;60613;48.658;2.328;2023-01-24T07:17:14;21.40;29.30
72576;DHT22;60613;48.658;2.328;2023-01-24T07:19:40;21.40;29.50
72576;DHT22;60613;48.658;2.328;2023-01-24T07:22:11;21.40;29.50
72576;DHT22;60613;48.658;2.328;2023-01-24T07:24:36;21.50;29.50
72576;DHT22;60613;48.658;2.328;2023-01-24T07:27:02;21.40;29.50
72576;DHT22;60613;48.658;2.328;2023-01-24T07:29:28;21.50;29.30
72576;DHT22;60613;48.658;2.328;2023-01-24T07:31:54;21.50;29.00
72576;DHT22;60613;48.658;2.328;2023-01-24T07:34:19;21.50;29.10
72576;DHT22;60613;48.658;2.328;2023-01-24T07:36:46;21.50;29.10
72576;DHT22;60613;48.658;2.328;2023-01-24T07:39:13;21.50;27.90
72576;DHT22;60613;48.658;2.328;2023-01-24T07:41:38;20.40;26.70
72576;DHT22;60613;48.658;2.328;2023-01-24T07:44:06;20.10;26.70
72576;DHT22;60613;48.658;2.328;2023-01-24T07:46:32;19.60;26.50
72576;DHT22;60613;48.658;2.328;2023-01-24T07:48:58;19.00;27.00
72576;DHT22;60613;48.658;2.328;2023-01-24T07:51:24;18.60;27.60
72576;DHT22;60613;48.658;2.328;2023-01-24T07:53:49;18.20;28.20
72576;DHT22;60613;48.658;2.328;2023-01-24T07:56:15;17.90;28.70
72576;DHT22;60613;48.658;2.328;2023-01-24T07:58:41;17.70;29.00
72576;DHT22;60613;48.658;2.328;2023-01-24T08:01:07;17.40;29.40
72576;DHT22;60613;48.658;2.328;2023-01-24T08:03:33;17.20;29.70
72576;DHT22;60613;48.658;2.328;2023-01-24T08:05:59;17.50;31.00
72576;DHT22;60613;48.658;2.328;2023-01-24T08:08:24;17.80;31.20
72576;DHT22;60613;48.658;2.328;2023-01-24T08:10:50;18.20;31.00
72576;DHT22;60613;48.658;2.328;2023-01-24T08:13:16;18.50;30.70
72576;DHT22;60613;48.658;2.328;2023-01-24T08:15:41;18.70;30.60
72576;DHT22;60613;48.658;2.328;2023-01-24T08:18:07;18.90;30.50
72576;DHT22;60613;48.658;2.328;2023-01-24T08:20:33;19.10;30.30
72576;DHT22;60613;48.658;2.328;2023-01-24T08:22:58;19.20;30.00
72576;DHT22;60613;48.658;2.328;2023-01-24T08:25:25;19.40;30.00
72576;DHT22;60613;48.658;2.328;2023-01-24T08:27:52;19.50;29.90
72576;DHT22;60613;48.658;2.328;2023-01-24T08:30:18;19.60;29.70
72576;DHT22;60613;48.658;2.328;2023-01-24T08:32:44;19.70;29.60
72576;DHT22;60613;48.658;2.328;2023-01-24T08:35:10;19.80;29.50
72576;DHT22;60613;48.658;2.328;2023-01-24T08:37:35;19.90;29.40
72576;DHT22;60613;48.658;2.328;2023-01-24T08:40:01;19.90;29.40
72576;DHT22;60613;48.658;2.328;2023-01-24T08:42:27;20.00;29.40
72576;DHT22;60613;48.658;2.328;2023-01-24T08:44:52;20.00;29.30
72576;DHT22;60613;48.658;2.328;2023-01-24T08:47:18;20.10;29.30
72576;DHT22;60613;48.658;2.328;2023-01-24T08:49:43;20.10;29.30
72576;DHT22;60613;48.658;2.328;2023-01-24T08:52:09;20.10;29.40
72576;DHT22;60613;48.658;2.328;2023-01-24T08:54:35;20.10;29.90
72576;DHT22;60613;48.658;2.328;2023-01-24T08:57:04;20.10;30.80
72576;DHT22;60613;48.658;2.328;2023-01-24T08:59:30;20.10;30.80
72576;DHT22;60613;48.658;2.328;2023-01-24T09:01:56;20.00;29.40
72576;DHT22;60613;48.658;2.328;2023-01-24T09:04:21;20.00;29.40
72576;DHT22;60613;48.658;2.328;2023-01-24T09:06:47;20.00;29.70
72576;DHT22;60613;48.658;2.328;2023-01-24T09:09:14;20.00;30.10
72576;DHT22;60613;48.658;2.328;2023-01-24T09:11:40;20.00;30.50
72576;DHT22;60613;48.658;2.328;2023-01-24T09:14:05;20.00;31.10
72576;DHT22;60613;48.658;2.328;2023-01-24T09:16:31;20.00;30.80
72576;DHT22;60613;48.658;2.328;2023-01-24T09:18:57;20.00;31.40
72576;DHT22;60613;48.658;2.328;2023-01-24T09:21:22;20.10;30.80
72576;DHT22;60613;48.658;2.328;2023-01-24T09:23:48;20.10;30.80
72576;DHT22;60613;48.658;2.328;2023-01-24T09:26:13;20.10;31.00
72576;DHT22;60613;48.658;2.328;2023-01-24T09:28:40;20.20;31.10
72576;DHT22;60613;48.658;2.328;2023-01-24T09:31:08;20.20;31.40
72576;DHT22;60613;48.658;2.328;2023-01-24T09:33:34;20.10;31.10
72576;DHT22;60613;48.658;2.328;2023-01-24T09:36:01;20.10;30.80
72576;DHT22;60613;48.658;2.328;2023-01-24T09:38:29;20.10;30.90
72576;DHT22;60613;48.658;2.328;2023-01-24T09:46:34;20.20;30.60
72576;DHT22;60613;48.658;2.328;2023-01-24T09:51:45;20.30;30.50
72576;DHT22;60613;48.658;2.328;2023-01-24T09:54:17;20.30;30.60
72576;DHT22;60613;48.658;2.328;2023-01-24T09:56:46;20.30;30.60
72576;DHT22;60613;48.658;2.328;2023-01-24T09:59:20;20.30;30.60
72576;DHT22;60613;48.658;2.328;2023-01-24T10:01:50;20.30;30.50
72576;DHT22;60613;48.658;2.328;2023-01-24T10:04:19;20.30;30.20
72576;DHT22;60613;48.658;2.328;2023-01-24T10:09:51;20.40;30.00
72576;DHT22;60613;48.658;2.328;2023-01-24T10:17:41;20.50;29.80
72576;DHT22;60613;48.658;2.328;2023-01-24T10:25:51;20.60;29.60
72576;DHT22;60613;48.658;2.328;2023-01-24T10:33:50;20.60;29.50
72576;DHT22;60613;48.658;2.328;2023-01-24T10:38:49;20.70;29.80
72576;DHT22;60613;48.658;2.328;2023-01-24T10:41:24;20.70;29.50
72576;DHT22;60613;48.658;2.328;2023-01-24T10:43:58;20.70;29.30
72576;DHT22;60613;48.658;2.328;2023-01-24T10:48:57;20.80;29.30
72576;DHT22;60613;48.658;2.328;2023-01-24T10:51:24;20.80;29.30
72576;DHT22;60613;48.658;2.328;2023-01-24T10:53:50;20.80;29.30
72576;DHT22;60613;48.658;2.328;2023-01-24T10:56:18;20.90;29.30
72576;DHT22;60613;48.658;2.328;2023-01-24T10:59:04;20.90;29.30
72576;DHT22;60613;48.658;2.328;2023-01-24T11:01:42;20.90;29.30
72576;DHT22;60613;48.658;2.328;2023-01-24T11:04:27;20.90;29.30
72576;DHT22;60613;48.658;2.328;2023-01-24T11:06:53;20.90;29.30
72576;DHT22;60613;48.658;2.328;2023-01-24T11:09:21;20.90;29.30
72576;DHT22;60613;48.658;2.328;2023-01-24T11:11:54;21.00;29.30
72576;DHT22;60613;48.658;2.328;2023-01-24T11:14:26;21.00;29.40
72576;DHT22;60613;48.658;2.328;2023-01-24T11:16:57;21.00;29.30
72576;DHT22;60613;48.658;2.328;2023-01-24T11:19:35;21.00;29.10
72576;DHT22;60613;48.658;2.328;2023-01-24T11:22:25;21.00;29.30
72576;DHT22;60613;48.658;2.328;2023-01-24T11:24:57;21.00;29.00
72576;DHT22;60613;48.658;2.328;2023-01-24T11:27:23;21.00;29.00
72576;DHT22;60613;48.658;2.328;2023-01-24T11:30:14;21.00;29.00
72576;DHT22;60613;48.658;2.328;2023-01-24T11:32:57;21.00;29.10
72576;DHT22;60613;48.658;2.328;2023-01-24T11:35:40;20.90;28.90
72576;DHT22;60613;48.658;2.328;2023-01-24T11:38:29;20.90;29.80
72576;DHT22;60613;48.658;2.328;2023-01-24T11:48:59;20.90;28.70
72576;DHT22;60613;48.658;2.328;2023-01-24T11:54:43;20.90;28.90
72576;DHT22;60613;48.658;2.328;2023-01-24T11:57:51;21.00;29.10
72576;DHT22;60613;48.658;2.328;2023-01-24T12:05:59;21.10;28.70
72576;DHT22;60613;48.658;2.328;2023-01-24T12:08:31;21.10;28.90
72576;DHT22;60613;48.658;2.328;2023-01-24T12:11:25;21.10;29.00
72576;DHT22;60613;48.658;2.328;2023-01-24T12:16:56;21.10;29.10
72576;DHT22;60613;48.658;2.328;2023-01-24T12:22:33;21.20;29.40
72576;DHT22;60613;48.658;2.328;2023-01-24T12:25:03;21.20;29.40
72576;DHT22;60613;48.658;2.328;2023-01-24T12:27:35;21.10;29.40
72576;DHT22;60613;48.658;2.328;2023-01-24T12:30:16;21.10;29.40
72576;DHT22;60613;48.658;2.328;2023-01-24T12:32:53;21.10;29.70
72576;DHT22;60613;48.658;2.328;2023-01-24T12:38:17;21.10;29.60
72576;DHT22;60613;48.658;2.328;2023-01-24T12:40:57;21.10;29.50
72576;DHT22;60613;48.658;2.328;2023-01-24T12:46:25;21.10;29.40
72576;DHT22;60613;48.658;2.328;2023-01-24T12:49:25;21.10;29.50
72576;DHT22;60613;48.658;2.328;2023-01-24T12:55:13;21.10;29.40
72576;DHT22;60613;48.658;2.328;2023-01-24T13:08:48;21.10;29.40
72576;DHT22;60613;48.658;2.328;2023-01-24T13:11:20;21.10;29.50
72576;DHT22;60613;48.658;2.328;2023-01-24T13:14:04;21.10;29.50
72576;DHT22;60613;48.658;2.328;2023-01-24T13:32:23;21.20;29.70
72576;DHT22;60613;48.658;2.328;2023-01-24T13:34:54;21.20;29.60
72576;DHT22;60613;48.658;2.328;2023-01-24T13:37:32;21.20;29.90
72576;DHT22;60613;48.658;2.328;2023-01-24T13:40:05;21.20;31.20
72576;DHT22;60613;48.658;2.328;2023-01-24T13:42:34;21.30;30.20
72576;DHT22;60613;48.658;2.328;2023-01-24T13:47:52;21.40;30.70
72576;DHT22;60613;48.658;2.328;2023-01-24T13:50:19;21.40;30.60
72576;DHT22;60613;48.658;2.328;2023-01-24T13:52:52;21.40;30.40
72576;DHT22;60613;48.658;2.328;2023-01-24T13:57:46;21.40;30.50
72576;DHT22;60613;48.658;2.328;2023-01-24T14:08:02;21.50;30.80
72576;DHT22;60613;48.658;2.328;2023-01-24T14:10:45;21.50;30.70
72576;DHT22;60613;48.658;2.328;2023-01-24T14:21:55;21.70;30.60
72576;DHT22;60613;48.658;2.328;2023-01-24T14:26:51;21.70;30.50
72576;DHT22;60613;48.658;2.328;2023-01-24T14:29:18;21.70;30.60
72576;DHT22;60613;48.658;2.328;2023-01-24T14:31:46;21.70;30.00
72576;DHT22;60613;48.658;2.328;2023-01-24T14:34:39;21.70;29.70
72576;DHT22;60613;48.658;2.328;2023-01-24T14:37:10;21.70;29.70
72576;DHT22;60613;48.658;2.328;2023-01-24T14:39:37;21.70;29.60
72576;DHT22;60613;48.658;2.328;2023-01-24T14:42:11;21.70;29.60
72576;DHT22;60613;48.658;2.328;2023-01-24T14:44:39;21.70;29.60
72576;DHT22;60613;48.658;2.328;2023-01-24T14:49:52;21.70;29.60
72576;DHT22;60613;48.658;2.328;2023-01-24T14:52:27;21.70;29.40
72576;DHT22;60613;48.658;2.328;2023-01-24T14:54:54;21.60;29.30
72576;DHT22;60613;48.658;2.328;2023-01-24T14:57:31;21.60;29.60
72576;DHT22;60613;48.658;2.328;2023-01-24T15:02:26;21.60;29.30
72576;DHT22;60613;48.658;2.328;2023-01-24T15:04:52;21.60;29.30
72576;DHT22;60613;48.658;2.328;2023-01-24T15:07:18;21.60;29.20
72576;DHT22;60613;48.658;2.328;2023-01-24T15:09:43;21.50;29.20
72576;DHT22;60613;48.658;2.328;2023-01-24T15:12:13;21.50;29.10
72576;DHT22;60613;48.658;2.328;2023-01-24T15:14:39;21.50;29.10
72576;DHT22;60613;48.658;2.328;2023-01-24T15:17:15;21.60;29.50
72576;DHT22;60613;48.658;2.328;2023-01-24T15:19:48;21.60;29.50
72576;DHT22;60613;48.658;2.328;2023-01-24T15:22:22;21.60;29.60
72576;DHT22;60613;48.658;2.328;2023-01-24T15:24:54;21.70;29.60
72576;DHT22;60613;48.658;2.328;2023-01-24T15:30:15;21.80;29.70
72576;DHT22;60613;48.658;2.328;2023-01-24T15:32:46;21.70;29.60
72576;DHT22;60613;48.658;2.328;2023-01-24T15:37:42;21.80;29.60
72576;DHT22;60613;48.658;2.328;2023-01-24T15:40:18;21.80;29.60
72576;DHT22;60613;48.658;2.328;2023-01-24T15:42:46;21.80;29.50
72576;DHT22;60613;48.658;2.328;2023-01-24T15:45:35;21.80;29.50
72576;DHT22;60613;48.658;2.328;2023-01-24T15:48:24;21.80;29.50
72576;DHT22;60613;48.658;2.328;2023-01-24T15:50:51;21.80;29.30
72576;DHT22;60613;48.658;2.328;2023-01-24T15:53:39;21.80;29.30
72576;DHT22;60613;48.658;2.328;2023-01-24T15:56:23;21.80;29.10
72576;DHT22;60613;48.658;2.328;2023-01-24T15:58:49;21.80;29.00
72576;DHT22;60613;48.658;2.328;2023-01-24T16:01:15;21.80;28.90
72576;DHT22;60613;48.658;2.328;2023-01-24T16:03:41;21.80;28.90
72576;DHT22;60613;48.658;2.328;2023-01-24T16:06:07;21.80;28.90
72576;DHT22;60613;48.658;2.328;2023-01-24T16:08:32;21.80;28.80
72576;DHT22;60613;48.658;2.328;2023-01-24T16:10:59;21.70;28.90
72576;DHT22;60613;48.658;2.328;2023-01-24T16:13:41;21.80;28.90
72576;DHT22;60613;48.658;2.328;2023-01-24T16:16:12;21.80;29.10
72576;DHT22;60613;48.658;2.328;2023-01-24T16:18:38;21.70;29.00
72576;DHT22;60613;48.658;2.328;2023-01-24T16:21:04;21.70;29.10
72576;DHT22;60613;48.658;2.328;2023-01-24T16:23:30;21.70;29.00
72576;DHT22;60613;48.658;2.328;2023-01-24T16:25:56;21.80;29.00
72576;DHT22;60613;48.658;2.328;2023-01-24T16:28:26;21.80;29.00
72576;DHT22;60613;48.658;2.328;2023-01-24T16:30:54;21.80;28.80
72576;DHT22;60613;48.658;2.328;2023-01-24T16:33:24;21.80;28.90
72576;DHT22;60613;48.658;2.328;2023-01-24T16:35:49;21.70;28.90
72576;DHT22;60613;48.658;2.328;2023-01-24T16:38:16;21.80;28.90
72576;DHT22;60613;48.658;2.328;2023-01-24T16:40:42;21.80;28.90
72576;DHT22;60613;48.658;2.328;2023-01-24T16:43:15;21.70;28.90
72576;DHT22;60613;48.658;2.328;2023-01-24T16:45:45;21.70;28.80
72576;DHT22;60613;48.658;2.328;2023-01-24T16:48:11;21.80;28.80
72576;DHT22;60613;48.658;2.328;2023-01-24T16:50:41;21.80;28.80
72576;DHT22;60613;48.658;2.328;2023-01-24T16:53:07;21.80;28.80
72576;DHT22;60613;48.658;2.328;2023-01-24T16:55:33;21.80;28.80
72576;DHT22;60613;48.658;2.328;2023-01-24T16:58:00;21.80;28.80
72576;DHT22;60613;48.658;2.328;2023-01-24T17:00:26;21.80;28.80
72576;DHT22;60613;48.658;2.328;2023-01-24T17:02:51;21.80;28.80
72576;DHT22;60613;48.658;2.328;2023-01-24T17:05:17;21.80;28.90
72576;DHT22;60613;48.658;2.328;2023-01-24T17:07:43;21.80;29.80
72576;DHT22;60613;48.658;2.328;2023-01-24T17:10:12;21.80;28.90
72576;DHT22;60613;48.658;2.328;2023-01-24T17:12:38;21.80;28.80
72576;DHT22;60613;48.658;2.328;2023-01-24T17:15:04;21.80;28.90
72576;DHT22;60613;48.658;2.328;2023-01-24T17:17:29;21.80;28.90
72576;DHT22;60613;48.658;2.328;2023-01-24T17:19:55;21.80;29.00
72576;DHT22;60613;48.658;2.328;2023-01-24T17:22:20;21.80;28.90
72576;DHT22;60613;48.658;2.328;2023-01-24T17:24:46;21.80;28.90
72576;DHT22;60613;48.658;2.328;2023-01-24T17:27:12;21.80;28.90
72576;DHT22;60613;48.658;2.328;2023-01-24T17:29:38;21.80;28.90
72576;DHT22;60613;48.658;2.328;2023-01-24T17:32:04;21.80;28.90
72576;DHT22;60613;48.658;2.328;2023-01-24T17:34:29;21.80;29.70
72576;DHT22;60613;48.658;2.328;2023-01-24T17:36:55;21.80;28.90
72576;DHT22;60613;48.658;2.328;2023-01-24T17:39:20;21.70;28.90
72576;DHT22;60613;48.658;2.328;2023-01-24T17:41:46;21.80;28.80
72576;DHT22;60613;48.658;2.328;2023-01-24T17:44:12;21.80;28.80
72576;DHT22;60613;48.658;2.328;2023-01-24T17:46:37;21.70;28.80
72576;DHT22;60613;48.658;2.328;2023-01-24T17:49:03;21.70;29.00
72576;DHT22;60613;48.658;2.328;2023-01-24T17:51:29;21.70;28.90
72576;DHT22;60613;48.658;2.328;2023-01-24T17:53:57;21.70;29.00
72576;DHT22;60613;48.658;2.328;2023-01-24T17:56:23;21.60;28.90
72576;DHT22;60613;48.658;2.328;2023-01-24T17:58:49;21.60;29.00
72576;DHT22;60613;48.658;2.328;2023-01-24T18:01:15;21.60;29.10
72576;DHT22;60613;48.658;2.328;2023-01-24T18:03:44;21.60;29.20
72576;DHT22;60613;48.658;2.328;2023-01-24T18:06:10;21.60;28.90
72576;DHT22;60613;48.658;2.328;2023-01-24T18:08:36;21.60;28.80
72576;DHT22;60613;48.658;2.328;2023-01-24T18:11:09;21.60;28.80
72576;DHT22;60613;48.658;2.328;2023-01-24T18:13:35;21.60;28.80
72576;DHT22;60613;48.658;2.328;2023-01-24T18:16:06;21.60;28.80
72576;DHT22;60613;48.658;2.328;2023-01-24T18:18:34;21.60;28.90
72576;DHT22;60613;48.658;2.328;2023-01-24T18:21:00;21.60;29.00
72576;DHT22;60613;48.658;2.328;2023-01-24T18:23:25;21.60;29.20
72576;DHT22;60613;48.658;2.328;2023-01-24T18:25:51;21.60;29.30
72576;DHT22;60613;48.658;2.328;2023-01-24T18:28:16;21.60;29.30
72576;DHT22;60613;48.658;2.328;2023-01-24T18:30:42;21.60;29.30
72576;DHT22;60613;48.658;2.328;2023-01-24T18:33:08;21.60;29.30
72576;DHT22;60613;48.658;2.328;2023-01-24T18:35:33;21.60;29.40
72576;DHT22;60613;48.658;2.328;2023-01-24T18:37:59;21.60;29.60
72576;DHT22;60613;48.658;2.328;2023-01-24T18:40:24;21.60;29.60
72576;DHT22;60613;48.658;2.328;2023-01-24T18:42:50;21.60;29.60
72576;DHT22;60613;48.658;2.328;2023-01-24T18:45:16;21.60;29.60
72576;DHT22;60613;48.658;2.328;2023-01-24T18:47:41;21.60;29.60
72576;DHT22;60613;48.658;2.328;2023-01-24T18:50:07;21.60;29.60
72576;DHT22;60613;48.658;2.328;2023-01-24T18:52:33;21.60;29.50
72576;DHT22;60613;48.658;2.328;2023-01-24T18:54:59;21.50;29.50
72576;DHT22;60613;48.658;2.328;2023-01-24T18:57:24;21.50;29.40
72576;DHT22;60613;48.658;2.328;2023-01-24T18:59:50;21.50;29.40
72576;DHT22;60613;48.658;2.328;2023-01-24T19:02:16;21.50;29.40
72576;DHT22;60613;48.658;2.328;2023-01-24T19:04:41;21.50;29.40
72576;DHT22;60613;48.658;2.328;2023-01-24T19:07:07;21.50;29.50
72576;DHT22;60613;48.658;2.328;2023-01-24T19:09:33;21.50;29.50
72576;DHT22;60613;48.658;2.328;2023-01-24T19:11:59;21.50;29.50
72576;DHT22;60613;48.658;2.328;2023-01-24T19:14:24;21.50;29.60
72576;DHT22;60613;48.658;2.328;2023-01-24T19:16:51;21.50;29.60
72576;DHT22;60613;48.658;2.328;2023-01-24T19:19:18;21.50;29.60
72576;DHT22;60613;48.658;2.328;2023-01-24T19:21:44;21.50;29.60
72576;DHT22;60613;48.658;2.328;2023-01-24T19:24:12;21.60;30.50
72576;DHT22;60613;48.658;2.328;2023-01-24T19:26:38;21.50;29.60
72576;DHT22;60613;48.658;2.328;2023-01-24T19:29:04;21.60;29.60
72576;DHT22;60613;48.658;2.328;2023-01-24T19:31:29;21.60;29.50
72576;DHT22;60613;48.658;2.328;2023-01-24T19:33:57;21.60;29.50
72576;DHT22;60613;48.658;2.328;2023-01-24T19:36:23;21.60;29.50
72576;DHT22;60613;48.658;2.328;2023-01-24T19:38:54;21.60;29.50
72576;DHT22;60613;48.658;2.328;2023-01-24T19:41:20;21.60;29.50
72576;DHT22;60613;48.658;2.328;2023-01-24T19:43:47;21.60;29.60
72576;DHT22;60613;48.658;2.328;2023-01-24T19:46:13;21.60;29.40
72576;DHT22;60613;48.658;2.328;2023-01-24T19:48:39;21.60;29.40
72576;DHT22;60613;48.658;2.328;2023-01-24T19:51:06;21.60;29.40
72576;DHT22;60613;48.658;2.328;2023-01-24T19:53:32;21.60;29.40
72576;DHT22;60613;48.658;2.328;2023-01-24T19:55:59;21.60;29.50
72576;DHT22;60613;48.658;2.328;2023-01-24T19:58:26;21.60;29.40
72576;DHT22;60613;48.658;2.328;2023-01-24T20:00:52;21.60;29.40
72576;DHT22;60613;48.658;2.328;2023-01-24T20:03:17;21.60;29.40
72576;DHT22;60613;48.658;2.328;2023-01-24T20:05:43;21.60;29.40
72576;DHT22;60613;48.658;2.328;2023-01-24T20:08:08;21.60;29.40
72576;DHT22;60613;48.658;2.328;2023-01-24T20:10:36;21.60;29.40
72576;DHT22;60613;48.658;2.328;2023-01-24T20:13:02;21.60;29.30
72576;DHT22;60613;48.658;2.328;2023-01-24T20:15:28;21.60;29.40
72576;DHT22;60613;48.658;2.328;2023-01-24T20:17:55;21.60;29.30
72576;DHT22;60613;48.658;2.328;2023-01-24T20:20:21;21.60;29.30
72576;DHT22;60613;48.658;2.328;2023-01-24T20:22:48;21.60;29.30
72576;DHT22;60613;48.658;2.328;2023-01-24T20:25:18;21.60;29.30
72576;DHT22;60613;48.658;2.328;2023-01-24T20:27:44;21.60;29.30
72576;DHT22;60613;48.658;2.328;2023-01-24T20:30:10;21.60;29.30
72576;DHT22;60613;48.658;2.328;2023-01-24T20:32:35;21.60;29.30
72576;DHT22;60613;48.658;2.328;2023-01-24T20:35:01;21.60;29.30
72576;DHT22;60613;48.658;2.328;2023-01-24T20:37:27;21.60;29.30
72576;DHT22;60613;48.658;2.328;2023-01-24T20:39:52;21.60;29.30
72576;DHT22;60613;48.658;2.328;2023-01-24T20:42:18;21.60;29.30
72576;DHT22;60613;48.658;2.328;2023-01-24T20:44:44;21.60;29.30
72576;DHT22;60613;48.658;2.328;2023-01-24T20:47:09;21.60;29.30
72576;DHT22;60613;48.658;2.328;2023-01-24T20:49:35;21.60;29.30
72576;DHT22;60613;48.658;2.328;2023-01-24T20:52:00;21.60;29.30
72576;DHT22;60613;48.658;2.328;2023-01-24T20:54:26;21.60;29.30
72576;DHT22;60613;48.658;2.328;2023-01-24T20:56:52;21.60;29.30
72576;DHT22;60613;48.658;2.328;2023-01-24T20:59:21;21.60;29.30
72576;DHT22;60613;48.658;2.328;2023-01-24T21:01:48;21.60;29.30
72576;DHT22;60613;48.658;2.328;2023-01-24T21:04:13;21.60;29.30
72576;DHT22;60613;48.658;2.328;2023-01-24T21:06:39;21.60;29.30
72576;DHT22;60613;48.658;2.328;2023-01-24T21:09:09;21.60;29.30
72576;DHT22;60613;48.658;2.328;2023-01-24T21:11:35;21.60;29.30
72576;DHT22;60613;48.658;2.328;2023-01-24T21:14:03;21.60;29.30
72576;DHT22;60613;48.658;2.328;2023-01-24T21:16:32;21.60;29.30
72576;DHT22;60613;48.658;2.328;2023-01-24T21:19:00;21.50;29.30
72576;DHT22;60613;48.658;2.328;2023-01-24T21:21:27;21.60;29.30
72576;DHT22;60613;48.658;2.328;2023-01-24T21:23:55;21.60;29.30
72576;DHT22;60613;48.658;2.328;2023-01-24T21:26:20;21.60;29.40
72576;DHT22;60613;48.658;2.328;2023-01-24T21:28:47;21.60;29.30
72576;DHT22;60613;48.658;2.328;2023-01-24T21:31:19;21.60;29.40
72576;DHT22;60613;48.658;2.328;2023-01-24T21:33:45;21.60;29.60
72576;DHT22;60613;48.658;2.328;2023-01-24T21:36:14;21.60;29.60
72576;DHT22;60613;48.658;2.328;2023-01-24T21:38:40;21.70;29.50
72576;DHT22;60613;48.658;2.328;2023-01-24T21:41:08;21.70;29.50
72576;DHT22;60613;48.658;2.328;2023-01-24T21:43:53;21.70;29.30
72576;DHT22;60613;48.658;2.328;2023-01-24T21:46:19;21.70;29.30
72576;DHT22;60613;48.658;2.328;2023-01-24T21:48:45;21.70;29.50
72576;DHT22;60613;48.658;2.328;2023-01-24T21:51:29;21.70;29.40
72576;DHT22;60613;48.658;2.328;2023-01-24T21:53:55;21.80;29.30
72576;DHT22;60613;48.658;2.328;2023-01-24T21:57:02;21.80;29.30
72576;DHT22;60613;48.658;2.328;2023-01-24T21:59:39;21.70;29.60
